Time;durP1;ratioP1;P1;durP2;ratioP2;P2;SDS_P1;SDS_P2;PMS_P1;PMS_P2;Temp;Humidity;BMP_temperature;BMP_pressure;BME280_temperature;BME280_humidity;BME280_pressure;Samples;Min_cycle;Max_cycle;Signal;HPM_P1;HPM_P2
2023/07/11 00:01:30;;;;;;;7.97;4.97;;;19.90;99.90;;;;;;4996193;28;20479;-77
2023/07/11 00:03:59;;;;;;;7.70;5.00;;;19.90;99.90;;;;;;4994975;28;20545;-76
2023/07/11 00:06:28;;;;;;;8.57;4.67;;;19.90;99.90;;;;;;4996133;28;20447;-76
2023/07/11 00:08:58;;;;;;;7.17;4.67;;;19.90;99.90;;;;;;4996111;28;20806;-76
2023/07/11 00:11:26;;;;;;;7.73;5.40;;;19.90;99.90;;;;;;4994872;28;20555;-76
2023/07/11 00:13:55;;;;;;;9.83;4.87;;;19.80;99.90;;;;;;4994672;28;20648;-76
2023/07/11 00:16:24;;;;;;;7.53;4.67;;;19.80;99.90;;;;;;4996163;28;20945;-76
2023/07/11 00:18:52;;;;;;;7.13;5.20;;;19.80;99.90;;;;;;4994653;28;20469;-76
2023/07/11 00:21:20;;;;;;;6.60;4.50;;;19.80;99.90;;;;;;4995821;28;20464;-76
2023/07/11 00:23:48;;;;;;;7.80;4.00;;;19.70;99.90;;;;;;4994622;28;20452;-76
2023/07/11 00:26:18;;;;;;;8.90;4.40;;;19.70;99.90;;;;;;4995990;28;20449;-76
2023/07/11 00:28:46;;;;;;;8.60;4.77;;;19.70;99.90;;;;;;4995921;28;20464;-76
2023/07/11 00:31:14;;;;;;;8.77;5.10;;;19.60;99.90;;;;;;4995680;28;20491;-76
2023/07/11 00:33:42;;;;;;;6.90;4.20;;;19.60;99.90;;;;;;4995788;28;20791;-76
2023/07/11 00:36:11;;;;;;;7.50;5.13;;;19.60;99.90;;;;;;4994558;28;20445;-76
2023/07/11 00:38:39;;;;;;;9.47;5.53;;;19.60;99.90;;;;;;4994460;28;20812;-76
2023/07/11 00:41:08;;;;;;;7.50;5.17;;;19.50;99.90;;;;;;4994166;28;20448;-76
2023/07/11 00:43:38;;;;;;;10.50;6.30;;;19.50;99.90;;;;;;4995688;28;20437;-76
2023/07/11 00:46:12;;;;;;;8.07;5.77;;;19.50;99.90;;;;;;4994130;28;20447;-76
2023/07/11 00:48:45;;;;;;;7.97;4.93;;;19.40;99.90;;;;;;4994078;28;20456;-76
2023/07/11 00:51:17;;;;;;;9.73;5.70;;;19.40;99.90;;;;;;4994335;28;20957;-76
2023/07/11 00:53:48;;;;;;;9.10;6.07;;;19.40;99.90;;;;;;4993559;28;20449;-76
2023/07/11 00:56:21;;;;;;;9.50;5.30;;;19.40;99.90;;;;;;4995204;28;20523;-76
2023/07/11 00:58:51;;;;;;;7.97;5.80;;;19.40;99.90;;;;;;4993909;28;20499;-76
2023/07/11 01:01:20;;;;;;;8.37;5.70;;;19.40;99.90;;;;;;4993911;28;20556;-76
2023/07/11 01:03:51;;;;;;;12.53;6.43;;;19.30;99.90;;;;;;4993858;28;20953;-76
2023/07/11 01:06:21;;;;;;;8.30;5.90;;;19.30;99.90;;;;;;4995202;28;20788;-76
2023/07/11 01:08:52;;;;;;;9.93;6.40;;;19.30;99.90;;;;;;4993664;28;20469;-76
2023/07/11 01:11:22;;;;;;;7.77;6.33;;;19.30;99.90;;;;;;4995725;28;20935;-76
2023/07/11 01:13:52;;;;;;;11.00;6.30;;;19.20;99.90;;;;;;4993624;28;20543;-76
2023/07/11 01:16:20;;;;;;;10.37;5.47;;;19.20;99.90;;;;;;4993388;28;20552;-76
2023/07/11 01:18:49;;;;;;;9.23;7.03;;;19.20;99.90;;;;;;4993449;28;20882;-76
2023/07/11 01:21:19;;;;;;;9.77;7.00;;;19.20;99.90;;;;;;4994802;28;20935;-76
2023/07/11 01:23:48;;;;;;;9.40;6.97;;;19.20;99.90;;;;;;4993390;28;20441;-76
2023/07/11 01:26:16;;;;;;;10.00;6.90;;;19.20;99.90;;;;;;4994635;28;20440;-76
2023/07/11 01:28:47;;;;;;;8.87;6.80;;;19.10;99.90;;;;;;4993370;28;20469;-76
2023/07/11 01:31:15;;;;;;;11.90;7.10;;;19.10;99.90;;;;;;4993282;28;20476;-76
2023/07/11 01:33:43;;;;;;;9.10;6.60;;;19.10;99.90;;;;;;4994757;28;20492;-76
2023/07/11 01:36:11;;;;;;;9.90;6.80;;;19.10;99.90;;;;;;4994589;28;20468;-76
2023/07/11 01:38:41;;;;;;;10.33;6.77;;;19.00;99.90;;;;;;4994367;28;20996;-76
2023/07/11 01:41:10;;;;;;;10.03;6.50;;;19.00;99.90;;;;;;4993500;28;20457;-76
2023/07/11 01:43:38;;;;;;;10.07;7.00;;;19.00;99.90;;;;;;4993261;28;20444;-76
2023/07/11 01:46:07;;;;;;;8.63;6.20;;;19.00;99.90;;;;;;4993177;28;20495;-76
2023/07/11 01:48:36;;;;;;;6.77;5.87;;;19.00;99.90;;;;;;4992954;28;20973;-76
2023/07/11 01:51:04;;;;;;;10.10;6.40;;;19.00;99.90;;;;;;4994263;28;20444;-76
2023/07/11 01:53:32;;;;;;;8.80;6.20;;;19.00;99.90;;;;;;4993041;28;20544;-76
2023/07/11 01:56:04;;;;;;;7.90;6.40;;;19.00;99.90;;;;;;4994207;28;20472;-76
2023/07/11 01:58:34;;;;;;;8.50;6.93;;;19.00;99.90;;;;;;4992803;28;20449;-76
2023/07/11 02:01:02;;;;;;;8.93;6.50;;;18.90;99.90;;;;;;4992996;28;20499;-76
2023/07/11 02:03:30;;;;;;;7.57;5.10;;;18.90;99.90;;;;;;4994221;28;20441;-76
2023/07/11 02:05:58;;;;;;;7.73;5.90;;;18.90;99.90;;;;;;4992013;28;20495;-76
2023/07/11 02:08:27;;;;;;;9.83;5.47;;;18.90;99.90;;;;;;4993986;28;20437;-76
2023/07/11 02:10:55;;;;;;;8.80;5.63;;;18.90;99.90;;;;;;4994104;28;20441;-76
2023/07/11 02:13:24;;;;;;;7.93;5.27;;;18.90;99.90;;;;;;4992703;28;20456;-76
2023/07/11 02:15:54;;;;;;;9.20;5.97;;;18.90;99.90;;;;;;4993768;28;20456;-76
2023/07/11 02:18:22;;;;;;;7.97;5.07;;;18.90;99.90;;;;;;4992693;28;20499;-76
2023/07/11 02:20:55;;;;;;;8.13;5.17;;;18.80;99.90;;;;;;4994211;28;20457;-76
2023/07/11 02:23:23;;;;;;;8.50;5.47;;;18.80;99.90;;;;;;4992647;28;20468;-76
2023/07/11 02:25:54;;;;;;;10.73;6.10;;;18.80;99.90;;;;;;4993930;28;20441;-76
2023/07/11 02:28:23;;;;;;;6.87;4.80;;;18.80;99.90;;;;;;4994225;28;20800;-77
2023/07/11 02:30:52;;;;;;;8.23;5.80;;;18.80;99.90;;;;;;4994352;28;20529;-77
2023/07/11 02:33:20;;;;;;;7.33;5.13;;;18.80;99.90;;;;;;4994322;28;20444;-77
2023/07/11 02:35:48;;;;;;;8.50;5.20;;;18.70;99.90;;;;;;4993735;28;21068;-77
2023/07/11 02:38:16;;;;;;;7.80;4.90;;;18.70;99.90;;;;;;4994399;28;20433;-77
2023/07/11 02:40:44;;;;;;;11.40;5.07;;;18.70;99.90;;;;;;4993599;28;20994;-76
2023/07/11 02:43:12;;;;;;;7.80;5.50;;;18.70;99.90;;;;;;4996355;28;20483;-77
2023/07/11 02:45:42;;;;;;;7.00;4.60;;;18.70;99.90;;;;;;4995192;28;20441;-76
2023/07/11 02:48:10;;;;;;;7.13;4.93;;;18.70;99.90;;;;;;4995058;28;20436;-76
2023/07/11 02:50:38;;;;;;;6.60;4.80;;;18.70;99.90;;;;;;4992924;28;20479;-76
2023/07/11 02:53:07;;;;;;;6.20;4.50;;;18.70;99.90;;;;;;4992846;28;20958;-76
2023/07/11 02:55:39;;;;;;;8.87;4.90;;;18.70;99.90;;;;;;4993798;28;20858;-76
2023/07/11 02:58:07;;;;;;;8.13;4.40;;;18.60;99.90;;;;;;4994150;28;20510;-76
2023/07/11 03:00:36;;;;;;;8.80;4.37;;;18.60;99.90;;;;;;4993654;28;21024;-76
2023/07/11 03:03:06;;;;;;;10.80;4.93;;;18.60;99.90;;;;;;4993581;28;20930;-76
2023/07/11 03:05:41;;;;;;;7.97;4.70;;;18.60;99.90;;;;;;4994187;28;20425;-76
2023/07/11 03:08:09;;;;;;;7.80;4.77;;;18.60;99.90;;;;;;4993910;28;20515;-76
2023/07/11 03:10:37;;;;;;;7.77;4.87;;;18.60;99.90;;;;;;4993493;28;20522;-76
2023/07/11 03:13:05;;;;;;;9.40;5.40;;;18.50;99.90;;;;;;4992239;28;20443;-76
2023/07/11 03:15:34;;;;;;;8.90;5.13;;;18.50;99.90;;;;;;4993399;28;20978;-76
2023/07/11 03:18:03;;;;;;;8.80;5.17;;;18.50;99.90;;;;;;4996572;28;20539;-76
2023/07/11 03:20:36;;;;;;;8.93;5.10;;;18.50;99.90;;;;;;4997240;28;20479;-76
2023/07/11 03:23:04;;;;;;;8.80;4.60;;;18.50;99.90;;;;;;4997314;28;20424;-76
2023/07/11 03:25:32;;;;;;;8.70;4.80;;;18.50;99.90;;;;;;4995973;28;20444;-76
2023/07/11 03:28:01;;;;;;;8.00;4.57;;;18.50;99.90;;;;;;4995833;28;20476;-76
2023/07/11 03:30:30;;;;;;;8.17;4.43;;;18.50;99.90;;;;;;4995685;28;20838;-76
2023/07/11 03:32:58;;;;;;;7.00;4.50;;;18.50;99.90;;;;;;4996788;28;20888;-76
2023/07/11 03:35:27;;;;;;;9.43;5.03;;;18.50;99.90;;;;;;4995415;28;20879;-76
2023/07/11 03:37:57;;;;;;;9.17;5.20;;;18.40;99.90;;;;;;4996773;28;20433;-76
2023/07/11 03:40:25;;;;;;;8.60;4.90;;;18.50;99.90;;;;;;4995224;28;21031;-76
2023/07/11 03:42:54;;;;;;;7.47;4.83;;;18.40;99.90;;;;;;4996600;28;20432;-76
2023/07/11 03:45:22;;;;;;;9.23;4.30;;;18.40;99.90;;;;;;4995348;28;20456;-76
2023/07/11 03:47:50;;;;;;;7.30;4.37;;;18.40;99.90;;;;;;4996566;28;20441;-75
2023/07/11 03:50:18;;;;;;;8.80;4.80;;;18.40;99.90;;;;;;4996432;28;20468;-76
2023/07/11 03:52:46;;;;;;;6.93;4.73;;;18.40;99.90;;;;;;4996674;28;20448;-76
2023/07/11 03:55:16;;;;;;;7.80;5.00;;;18.40;99.90;;;;;;4996391;28;20432;-76
2023/07/11 03:57:44;;;;;;;7.90;4.63;;;18.40;99.90;;;;;;4995042;28;20507;-76
2023/07/11 04:00:13;;;;;;;7.70;4.90;;;18.40;99.90;;;;;;4996205;28;21011;-76
2023/07/11 04:02:41;;;;;;;13.30;4.73;;;18.40;99.90;;;;;;4996731;28;20433;-76
2023/07/11 04:05:10;;;;;;;6.27;3.90;;;18.40;99.90;;;;;;4994865;28;20457;-76
2023/07/11 04:07:38;;;;;;;7.70;5.07;;;18.40;99.90;;;;;;4994918;28;20480;-76
2023/07/11 04:10:08;;;;;;;7.80;4.60;;;18.40;99.90;;;;;;4996301;28;20471;-76
2023/07/11 04:12:37;;;;;;;9.90;5.10;;;18.40;99.90;;;;;;4996058;28;20464;-76
2023/07/11 04:15:07;;;;;;;8.13;4.90;;;18.40;99.90;;;;;;4994667;28;20463;-76
2023/07/11 04:17:35;;;;;;;9.60;4.77;;;18.40;99.90;;;;;;4994545;28;20472;-76
2023/07/11 04:20:03;;;;;;;8.00;4.20;;;18.40;99.90;;;;;;4994566;28;20550;-76
2023/07/11 04:22:31;;;;;;;8.17;5.10;;;18.40;99.90;;;;;;4995985;28;20447;-77
2023/07/11 04:24:59;;;;;;;11.53;5.80;;;18.40;99.90;;;;;;4994501;28;20946;-76
2023/07/11 04:27:28;;;;;;;11.23;5.53;;;18.40;99.90;;;;;;4995712;28;20794;-76
2023/07/11 04:29:57;;;;;;;7.90;4.57;;;18.40;99.90;;;;;;4994847;28;20457;-76
2023/07/11 04:32:25;;;;;;;11.63;4.80;;;18.50;99.90;;;;;;4995840;28;20429;-76
2023/07/11 04:34:53;;;;;;;7.23;4.23;;;18.50;99.90;;;;;;4995881;28;20461;-76
2023/07/11 04:37:22;;;;;;;8.23;4.60;;;18.50;99.90;;;;;;4994214;28;21048;-76
2023/07/11 04:39:50;;;;;;;10.57;4.87;;;18.50;99.90;;;;;;4994399;28;20492;-75
2023/07/11 04:42:18;;;;;;;10.40;4.67;;;18.50;99.90;;;;;;4995851;28;20801;-76
2023/07/11 04:44:46;;;;;;;10.87;5.33;;;18.50;99.90;;;;;;4995751;28;20428;-76
2023/07/11 04:47:16;;;;;;;9.60;5.90;;;18.60;99.90;;;;;;4995556;28;20847;-76
2023/07/11 04:49:44;;;;;;;11.37;5.47;;;18.60;99.90;;;;;;4995265;28;20481;-76
2023/07/11 04:52:12;;;;;;;9.93;5.03;;;18.60;99.90;;;;;;4994337;28;20483;-76
2023/07/11 04:54:40;;;;;;;7.93;4.90;;;18.60;99.90;;;;;;4995555;28;20805;-76
2023/07/11 04:57:08;;;;;;;10.60;4.50;;;18.70;99.90;;;;;;4993845;28;20556;-76
2023/07/11 04:59:37;;;;;;;8.63;4.57;;;18.70;99.90;;;;;;4995319;28;20947;-76
2023/07/11 05:02:05;;;;;;;10.67;6.20;;;18.70;99.90;;;;;;4995178;28;20807;-76
2023/07/11 05:04:35;;;;;;;8.60;6.37;;;18.80;99.90;;;;;;4993859;28;21008;-76
2023/07/11 05:07:04;;;;;;;6.60;4.53;;;18.80;99.90;;;;;;4994123;28;20511;-76
2023/07/11 05:09:32;;;;;;;9.30;4.77;;;18.90;99.90;;;;;;4995192;28;20468;-76
2023/07/11 05:12:11;;;;;;;9.20;4.57;;;18.90;99.90;;;;;;4993876;28;20455;-76
2023/07/11 05:14:39;;;;;;;9.20;4.20;;;19.00;99.90;;;;;;4995519;28;20452;-76
2023/07/11 05:17:07;;;;;;;12.03;5.00;;;19.00;99.90;;;;;;4995039;28;20489;-75
2023/07/11 05:19:37;;;;;;;7.93;3.87;;;19.10;99.90;;;;;;4995425;28;20460;-76
2023/07/11 05:22:05;;;;;;;11.07;4.47;;;19.10;99.90;;;;;;4993877;28;20456;-76
2023/07/11 05:24:33;;;;;;;9.40;4.60;;;19.20;99.90;;;;;;4995142;28;20992;-76
2023/07/11 05:27:01;;;;;;;8.13;4.83;;;19.20;99.90;;;;;;4993640;28;20491;-76
2023/07/11 05:29:30;;;;;;;7.03;3.87;;;19.30;99.90;;;;;;4993453;28;21020;-76
2023/07/11 05:31:58;;;;;;;8.40;4.50;;;19.30;99.90;;;;;;4993353;28;20449;-76
2023/07/11 05:34:27;;;;;;;11.40;4.40;;;19.40;99.90;;;;;;4994451;28;20451;-76
2023/07/11 05:36:56;;;;;;;7.03;4.50;;;19.40;99.90;;;;;;4993164;28;20508;-76
2023/07/11 05:39:24;;;;;;;8.10;4.67;;;19.50;99.90;;;;;;4994487;28;20460;-76
2023/07/11 05:41:53;;;;;;;7.47;3.97;;;19.50;99.90;;;;;;4993075;28;20994;-76
2023/07/11 05:44:21;;;;;;;8.63;4.53;;;19.60;99.90;;;;;;4993146;28;20532;-76
2023/07/11 05:46:49;;;;;;;10.43;4.30;;;19.70;99.90;;;;;;4994478;28;20469;-76
2023/07/11 05:49:17;;;;;;;8.20;4.20;;;19.80;99.90;;;;;;4994198;28;20480;-75
2023/07/11 05:51:45;;;;;;;7.70;4.17;;;19.90;99.90;;;;;;4994227;28;20447;-76
2023/07/11 05:54:15;;;;;;;9.00;4.10;;;20.00;99.90;;;;;;4994677;28;20443;-76
2023/07/11 05:56:43;;;;;;;7.93;3.40;;;20.10;99.90;;;;;;4994126;28;20447;-75
2023/07/11 05:59:11;;;;;;;8.30;4.40;;;20.30;99.90;;;;;;4994146;28;20457;-75
2023/07/11 06:01:39;;;;;;;9.20;4.10;;;20.40;99.90;;;;;;4997880;28;20580;-76
2023/07/11 06:04:11;;;;;;;9.90;4.73;;;20.50;99.90;;;;;;4997513;28;20441;-76
2023/07/11 06:06:42;;;;;;;10.03;4.47;;;20.60;99.90;;;;;;4996366;28;20429;-76
2023/07/11 06:09:13;;;;;;;7.70;3.93;;;20.80;99.90;;;;;;4995188;28;20452;-75
2023/07/11 06:11:43;;;;;;;5.80;3.10;;;20.90;99.90;;;;;;4994994;28;20452;-76
2023/07/11 06:14:12;;;;;;;8.60;3.53;;;21.00;99.90;;;;;;4993107;28;20504;-75
2023/07/11 06:16:42;;;;;;;7.10;3.73;;;21.30;99.90;;;;;;4993042;28;20460;-76
2023/07/11 06:19:11;;;;;;;8.33;3.80;;;21.50;99.90;;;;;;4994432;28;20866;-76
2023/07/11 06:21:39;;;;;;;8.33;3.90;;;21.70;99.90;;;;;;4992947;28;20536;-76
2023/07/11 06:24:07;;;;;;;9.47;3.40;;;21.80;99.90;;;;;;4994149;28;20481;-76
2023/07/11 06:26:35;;;;;;;9.03;3.40;;;22.00;99.90;;;;;;4994090;28;20448;-74
2023/07/11 06:29:05;;;;;;;8.00;3.10;;;22.20;99.90;;;;;;4994218;28;20488;-75
2023/07/11 06:31:33;;;;;;;6.63;3.03;;;22.40;99.90;;;;;;4992701;28;20476;-76
2023/07/11 06:34:01;;;;;;;7.50;3.87;;;22.40;99.90;;;;;;4992650;28;20441;-75
2023/07/11 06:36:29;;;;;;;6.93;3.23;;;22.50;99.90;;;;;;4992719;28;20453;-75
2023/07/11 06:38:57;;;;;;;6.93;3.37;;;22.60;99.90;;;;;;4993873;28;20583;-76
2023/07/11 06:41:28;;;;;;;9.23;3.33;;;22.70;99.90;;;;;;4994228;28;20499;-75
2023/07/11 06:43:57;;;;;;;7.10;3.50;;;22.70;99.90;;;;;;4993861;28;20429;-76
2023/07/11 06:46:26;;;;;;;7.93;3.03;;;22.80;99.90;;;;;;4993919;28;20972;-75
2023/07/11 06:48:55;;;;;;;7.90;3.27;;;22.90;99.90;;;;;;4992580;28;20493;-75
2023/07/11 06:51:24;;;;;;;7.63;3.20;;;22.90;99.90;;;;;;4994046;28;20823;-76
2023/07/11 06:53:52;;;;;;;8.70;3.23;;;23.00;99.90;;;;;;4995863;28;20461;-75
2023/07/11 06:56:20;;;;;;;6.00;3.47;;;23.10;99.90;;;;;;4997760;28;20480;-76
2023/07/11 06:58:48;;;;;;;5.27;3.10;;;23.10;99.90;;;;;;4997486;28;20511;-75
2023/07/11 07:01:21;;;;;;;8.30;4.23;;;23.10;99.90;;;;;;4997112;28;20851;-75
2023/07/11 07:04:06;;;;;;;7.87;3.60;;;23.10;99.90;;;;;;4998242;28;20513;-75
2023/07/11 07:06:35;;;;;;;7.50;3.13;;;23.20;99.90;;;;;;4997116;28;20823;-75
2023/07/11 07:09:04;;;;;;;10.20;3.17;;;23.40;99.90;;;;;;4997852;28;20460;-74
2023/07/11 07:11:35;;;;;;;6.30;3.10;;;23.50;99.90;;;;;;4997489;28;20436;-75
2023/07/11 07:14:05;;;;;;;7.57;3.27;;;23.70;99.90;;;;;;4997590;28;20436;-75
2023/07/11 07:16:34;;;;;;;6.30;3.10;;;23.80;99.90;;;;;;4997252;28;20459;-75
2023/07/11 07:19:04;;;;;;;5.60;3.20;;;24.00;99.90;;;;;;4997389;28;20559;-73
2023/07/11 07:21:33;;;;;;;8.93;3.20;;;24.10;99.90;;;;;;4997425;28;20867;-75
2023/07/11 07:24:02;;;;;;;7.00;3.00;;;24.30;99.90;;;;;;4997846;28;20499;-74
2023/07/11 07:26:30;;;;;;;6.80;3.23;;;24.40;99.90;;;;;;4998058;28;20491;-75
2023/07/11 07:28:58;;;;;;;6.47;3.07;;;24.60;99.90;;;;;;4997563;28;21001;-76
2023/07/11 07:31:26;;;;;;;6.70;3.00;;;24.70;99.90;;;;;;4997353;28;20540;-75
2023/07/11 07:33:55;;;;;;;8.20;3.17;;;24.80;99.90;;;;;;4997259;28;20958;-75
2023/07/11 07:36:23;;;;;;;5.80;3.00;;;25.00;99.90;;;;;;4997199;28;20456;-75
2023/07/11 07:38:52;;;;;;;5.30;2.80;;;25.10;99.90;;;;;;4996965;28;20487;-75
2023/07/11 07:41:21;;;;;;;7.43;2.90;;;25.20;99.90;;;;;;4997279;28;20468;-75
2023/07/11 07:43:49;;;;;;;7.20;3.00;;;25.30;99.90;;;;;;4995769;28;20802;-76
2023/07/11 07:46:19;;;;;;;5.40;2.87;;;25.50;99.90;;;;;;4996809;28;20437;-75
2023/07/11 07:48:47;;;;;;;7.77;3.27;;;25.60;99.90;;;;;;4997159;28;21002;-76
2023/07/11 07:51:18;;;;;;;5.80;2.70;;;25.70;99.90;;;;;;4997366;28;20471;-76
2023/07/11 07:53:47;;;;;;;6.13;2.97;;;25.90;99.90;;;;;;4997108;28;20424;-76
2023/07/11 07:56:19;;;;;;;6.83;2.93;;;25.90;99.90;;;;;;4996697;28;20452;-75
2023/07/11 07:58:47;;;;;;;5.43;2.80;;;26.00;99.90;;;;;;4996775;28;20484;-74
2023/07/11 08:01:18;;;;;;;6.30;3.30;;;26.00;99.90;;;;;;4996586;28;20444;-76
2023/07/11 08:03:46;;;;;;;9.37;3.17;;;26.10;99.90;;;;;;4996237;28;20453;-75
2023/07/11 08:06:16;;;;;;;7.50;3.23;;;26.20;99.90;;;;;;4996607;28;20938;-75
2023/07/11 08:08:45;;;;;;;5.90;3.07;;;26.30;99.90;;;;;;4996385;28;20824;-76
2023/07/11 08:11:16;;;;;;;7.50;3.07;;;26.40;99.90;;;;;;4996313;28;20433;-76
2023/07/11 08:13:44;;;;;;;6.60;3.00;;;26.40;99.90;;;;;;4996254;28;20417;-76
2023/07/11 08:16:27;;;;;;;8.90;3.23;;;26.50;99.90;;;;;;4996157;28;20448;-76
2023/07/11 08:19:04;;;;;;;6.10;2.97;;;26.50;99.90;;;;;;4996199;28;20479;-76
2023/07/11 08:21:33;;;;;;;8.67;3.13;;;26.60;99.90;;;;;;4995183;28;20436;-76
2023/07/11 08:24:01;;;;;;;6.00;2.53;;;26.70;99.90;;;;;;4995889;28;20885;-75
2023/07/11 08:26:31;;;;;;;7.60;2.73;;;26.80;99.90;;;;;;4996234;28;20440;-76
2023/07/11 08:28:59;;;;;;;7.77;3.30;;;26.90;99.90;;;;;;4995020;28;20469;-75
2023/07/11 08:31:34;;;;;;;5.83;2.70;;;26.90;99.90;;;;;;4996262;28;20440;-75
2023/07/11 08:34:02;;;;;;;7.43;3.47;;;27.00;99.90;;;;;;4995977;28;20447;-75
2023/07/11 08:36:30;;;;;;;5.60;3.37;;;27.10;99.90;;;;;;4995682;28;20474;-77
2023/07/11 08:38:59;;;;;;;5.60;2.90;;;27.20;99.90;;;;;;4996468;28;20527;-76
2023/07/11 08:41:36;;;;;;;6.00;3.30;;;27.30;99.90;;;;;;4996218;28;20443;-76
2023/07/11 08:44:09;;;;;;;5.23;2.80;;;27.30;99.90;;;;;;4994407;28;20934;-76
2023/07/11 08:46:42;;;;;;;5.90;2.97;;;27.40;99.90;;;;;;4994782;28;20841;-76
2023/07/11 08:49:16;;;;;;;5.43;3.30;;;27.40;99.90;;;;;;4994735;28;20551;-77
2023/07/11 08:51:50;;;;;;;5.93;3.20;;;27.50;99.90;;;;;;4995898;28;20914;-77
2023/07/11 08:54:24;;;;;;;6.00;3.33;;;27.40;99.90;;;;;;4995988;28;20428;-76
2023/07/11 08:56:56;;;;;;;5.70;2.93;;;27.50;99.90;;;;;;4995754;28;20427;-77
2023/07/11 08:59:30;;;;;;;4.60;2.97;;;27.50;99.90;;;;;;4995136;28;20550;-76
2023/07/11 09:02:07;;;;;;;6.40;3.20;;;27.50;99.90;;;;;;4995609;28;20421;-77
2023/07/11 09:04:38;;;;;;;6.00;3.20;;;27.60;99.90;;;;;;4995875;28;20440;-75
2023/07/11 09:07:11;;;;;;;5.80;2.73;;;27.60;99.90;;;;;;4995721;28;20421;-76
2023/07/11 09:09:41;;;;;;;6.27;3.30;;;27.60;99.90;;;;;;4995504;28;20870;-76
2023/07/11 09:12:21;;;;;;;6.00;3.20;;;27.70;99.90;;;;;;4995452;28;20440;-76
2023/07/11 09:14:55;;;;;;;6.10;3.53;;;27.80;99.90;;;;;;4993540;28;20448;-76
2023/07/11 09:17:32;;;;;;;6.10;2.93;;;27.90;99.90;;;;;;4997837;28;20447;-76
2023/07/11 09:20:16;;;;;;;5.27;3.17;;;28.00;99.90;;;;;;4997068;28;20583;-77
2023/07/11 09:22:53;;;;;;;7.60;3.53;;;28.00;99.70;;;;;;4996354;28;20421;-76
2023/07/11 09:25:26;;;;;;;5.50;3.17;;;28.10;99.40;;;;;;4995271;28;20444;-77
2023/07/11 09:28:02;;;;;;;8.23;3.33;;;28.10;99.00;;;;;;4996062;28;20417;-76
2023/07/11 09:30:35;;;;;;;6.73;3.27;;;28.10;99.10;;;;;;4996439;28;20474;-77
2023/07/11 09:33:14;;;;;;;7.63;2.97;;;28.20;99.20;;;;;;4996032;28;20918;-77
2023/07/11 09:35:45;;;;;;;5.73;3.17;;;28.30;99.10;;;;;;4994352;28;20437;-77
2023/07/11 09:38:18;;;;;;;7.80;3.40;;;28.30;98.80;;;;;;4996347;28;20475;-77
2023/07/11 09:40:51;;;;;;;7.63;3.07;;;28.40;98.30;;;;;;4994174;28;20527;-76
2023/07/11 09:43:21;;;;;;;5.90;3.20;;;28.40;98.30;;;;;;4995540;28;20456;-76
2023/07/11 09:45:49;;;;;;;5.20;2.80;;;28.50;98.10;;;;;;4995979;28;20455;-77
2023/07/11 09:48:20;;;;;;;5.90;3.10;;;28.50;98.00;;;;;;4994688;28;20445;-76
2023/07/11 09:50:56;;;;;;;5.50;3.03;;;28.60;97.70;;;;;;4994074;28;20572;-76
2023/07/11 09:53:44;;;;;;;8.33;3.20;;;28.60;97.40;;;;;;4993985;28;20448;-74
2023/07/11 09:56:13;;;;;;;7.30;3.27;;;28.60;97.20;;;;;;4996004;28;20424;-76
2023/07/11 09:58:47;;;;;;;6.60;3.47;;;28.60;97.30;;;;;;4995354;28;20445;-77
2023/07/11 10:01:24;;;;;;;5.20;2.80;;;28.70;97.20;;;;;;4994221;28;20468;-76
2023/07/11 10:03:55;;;;;;;7.17;3.03;;;28.70;96.80;;;;;;4995492;28;20807;-77
2023/07/11 10:06:33;;;;;;;5.00;2.57;;;28.80;96.30;;;;;;4995225;28;20427;-77
2023/07/11 10:09:16;;;;;;;8.03;3.03;;;28.80;96.30;;;;;;4995132;28;20511;-76
2023/07/11 10:11:55;;;;;;;6.00;3.33;;;28.90;96.10;;;;;;4995508;28;20420;-77
2023/07/11 10:14:30;;;;;;;5.70;2.83;;;28.90;95.90;;;;;;4995371;28;20512;-77
2023/07/11 10:16:59;;;;;;;5.73;2.90;;;29.00;96.00;;;;;;4995883;28;20474;-77
2023/07/11 10:19:28;;;;;;;5.50;2.67;;;29.00;95.70;;;;;;4997319;28;20480;-77
2023/07/11 10:22:00;;;;;;;5.47;2.93;;;29.00;95.30;;;;;;4994957;28;20453;-77
2023/07/11 10:24:38;;;;;;;5.47;3.23;;;29.00;95.00;;;;;;4996051;28;20432;-77
2023/07/11 10:27:13;;;;;;;7.20;3.10;;;29.10;94.80;;;;;;4995860;28;20524;-77
2023/07/11 10:29:48;;;;;;;5.00;2.67;;;29.10;94.80;;;;;;4999611;28;20460;-76
2023/07/11 10:32:25;;;;;;;6.43;2.77;;;29.20;94.40;;;;;;4997747;28;20448;-77
2023/07/11 10:34:56;;;;;;;6.10;2.80;;;29.30;94.30;;;;;;4999138;28;20429;-77
2023/07/11 10:37:31;;;;;;;5.23;2.83;;;29.30;94.00;;;;;;4999378;28;20416;-77
2023/07/11 10:40:06;;;;;;;6.10;2.50;;;29.30;93.50;;;;;;4999011;28;20918;-77
2023/07/11 10:42:42;;;;;;;5.40;2.40;;;29.40;93.70;;;;;;4997540;28;20463;-76
2023/07/11 10:45:15;;;;;;;6.40;3.30;;;29.40;93.70;;;;;;4999056;28;20794;-77
2023/07/11 10:47:51;;;;;;;6.00;3.40;;;29.50;93.80;;;;;;4998961;28;20420;-76
2023/07/11 10:50:31;;;;;;;6.00;3.00;;;29.50;94.10;;;;;;4997768;28;20463;-76
2023/07/11 10:53:05;;;;;;;4.83;2.70;;;29.50;93.80;;;;;;4996371;28;20539;-76
2023/07/11 10:55:50;;;;;;;4.93;2.80;;;29.60;93.60;;;;;;4997564;28;20440;-77
2023/07/11 10:58:22;;;;;;;5.83;3.00;;;29.60;93.50;;;;;;4997685;28;20455;-76
2023/07/11 11:01:03;;;;;;;7.30;3.40;;;29.70;93.80;;;;;;4996109;28;20529;-76
2023/07/11 11:03:40;;;;;;;6.20;3.47;;;29.70;93.70;;;;;;4996208;28;20448;-75
2023/07/11 11:06:35;;;;;;;4.70;2.77;;;29.70;93.60;;;;;;4997830;28;20431;-77
2023/07/11 11:09:12;;;;;;;5.03;2.90;;;29.70;93.70;;;;;;4997322;28;20456;-77
2023/07/11 11:11:59;;;;;;;5.13;2.80;;;29.80;93.70;;;;;;4998083;28;20428;-77
2023/07/11 11:14:37;;;;;;;6.93;3.77;;;29.80;93.60;;;;;;4996209;28;20440;-77
2023/07/11 11:17:20;;;;;;;6.20;2.83;;;29.90;93.40;;;;;;4997038;28;20960;-77
2023/07/11 11:19:59;;;;;;;6.77;2.80;;;30.00;93.40;;;;;;4997574;28;20483;-77
2023/07/11 11:22:38;;;;;;;6.87;3.70;;;30.00;93.00;;;;;;4995814;28;20440;-77
2023/07/11 11:25:15;;;;;;;6.13;3.20;;;30.00;93.10;;;;;;4997303;28;20474;-77
2023/07/11 11:27:52;;;;;;;8.00;3.10;;;30.10;93.00;;;;;;4997034;28;20462;-77
2023/07/11 11:30:34;;;;;;;5.97;2.90;;;30.10;92.90;;;;;;4997127;28;20515;-76
2023/07/11 11:33:15;;;;;;;4.90;3.00;;;30.10;92.80;;;;;;4996869;28;20417;-77
2023/07/11 11:35:53;;;;;;;5.17;3.07;;;30.10;92.80;;;;;;4996836;28;20484;-77
2023/07/11 11:38:33;;;;;;;5.17;3.40;;;30.20;92.70;;;;;;4996947;28;20436;-77
2023/07/11 11:41:10;;;;;;;5.70;3.40;;;30.20;92.70;;;;;;4997474;28;20457;-77
2023/07/11 11:43:39;;;;;;;6.20;3.53;;;30.20;92.50;;;;;;4996352;28;20452;-77
2023/07/11 11:46:11;;;;;;;6.40;3.20;;;30.30;92.40;;;;;;4996801;28;20431;-77
2023/07/11 11:48:45;;;;;;;5.90;3.07;;;30.30;92.40;;;;;;4996775;28;21030;-77
2023/07/11 11:51:18;;;;;;;5.73;2.73;;;30.40;92.60;;;;;;4996588;28;20432;-79
2023/07/11 11:54:02;;;;;;;5.27;3.10;;;30.40;92.30;;;;;;4996974;28;20418;-77
2023/07/11 11:56:30;;;;;;;6.07;3.13;;;30.40;92.00;;;;;;4997169;28;20786;-78
2023/07/11 11:59:01;;;;;;;5.13;3.00;;;30.50;91.80;;;;;;4995824;28;20471;-78
2023/07/11 12:01:38;;;;;;;5.90;3.37;;;30.50;91.00;;;;;;4997148;28;20457;-77
2023/07/11 12:04:49;;;;;;;5.70;3.47;;;30.50;90.90;;;;;;4995474;28;20551;-78
2023/07/11 12:07:31;;;;;;;5.17;3.10;;;30.50;90.80;;;;;;4997120;28;20483;-77
2023/07/11 12:10:12;;;;;;;5.60;3.20;;;30.50;90.90;;;;;;4996460;28;20540;-78
2023/07/11 12:13:18;;;;;;;6.50;3.77;;;30.60;90.90;;;;;;4997088;28;20516;-78
2023/07/11 12:15:52;;;;;;;5.67;3.00;;;30.60;90.70;;;;;;4995163;28;20455;-78
2023/07/11 12:18:41;;;;;;;6.10;3.50;;;30.70;90.70;;;;;;4996921;28;20518;-77
2023/07/11 12:21:26;;;;;;;7.40;3.40;;;30.80;90.50;;;;;;4995460;28;20970;-78
2023/07/11 12:24:38;;;;;;;6.30;3.60;;;30.80;90.50;;;;;;4994941;28;20448;-77
2023/07/11 12:28:00;;;;;;;5.43;3.13;;;30.90;90.30;;;;;;4996636;28;20440;-77
2023/07/11 12:30:37;;;;;;;5.10;3.50;;;30.90;90.20;;;;;;4996364;28;20456;-77
2023/07/11 12:33:35;;;;;;;7.63;3.33;;;31.00;90.30;;;;;;4997587;28;20914;-77
2023/07/11 12:36:35;;;;;;;5.10;3.00;;;31.00;89.90;;;;;;4998924;28;20459;-77
2023/07/11 12:39:16;;;;;;;5.77;3.63;;;31.00;90.10;;;;;;4993459;28;20479;-77
2023/07/11 12:41:52;;;;;;;9.30;3.53;;;31.10;90.00;;;;;;4996503;28;20463;-77
2023/07/11 12:44:20;;;;;;;6.80;3.40;;;31.10;89.80;;;;;;4996470;28;20420;-77
2023/07/11 12:46:51;;;;;;;5.73;3.50;;;31.20;90.10;;;;;;4995723;28;20491;-78
2023/07/11 12:49:25;;;;;;;6.10;3.20;;;31.20;90.00;;;;;;4995734;28;20471;-77
2023/07/11 12:52:04;;;;;;;9.63;3.10;;;31.20;89.60;;;;;;4995900;28;20440;-78
2023/07/11 12:54:33;;;;;;;7.23;3.43;;;31.20;88.50;;;;;;4996333;28;20971;-78
2023/07/11 12:57:02;;;;;;;5.70;3.27;;;31.10;88.30;;;;;;4996307;28;20449;-77
2023/07/11 12:59:31;;;;;;;8.40;3.47;;;31.10;88.30;;;;;;4996659;28;20471;-77
2023/07/11 13:02:02;;;;;;;6.00;3.13;;;31.00;88.60;;;;;;4995323;28;20468;-78
2023/07/11 13:04:35;;;;;;;5.77;3.27;;;31.00;89.50;;;;;;4995552;28;20933;-77
2023/07/11 13:07:05;;;;;;;5.60;3.67;;;31.10;90.00;;;;;;4995340;28;20432;-77
2023/07/11 13:09:43;;;;;;;9.00;3.70;;;31.20;90.10;;;;;;4995709;28;20463;-77